UPSVAC Airport Information Service

Licenciado Gustaavo Diaz Ordaz International

ICAO: MMPR Country: Mexico, NA
Latitude: 20.6801 Longitude: -105.254
Latest Arrival : UPS243313 (PHNL-MMPR) Latest Departure : UPS76657 (MMPR-KSDF)


WX CaptureLIVE
Data provided by noaa.gov | Fetched at 14:47:45

METAR : MMPR 251349Z 00000KT 15SM SCT030 16/16 A2996 RMK 8/500

TAF : MMPR 251129Z 2512/2618 00000KT P6SM SCT020 TX26/2518Z TN17/2512Z TEMPO 2512/2515 BKN015 FM251800 22010KT P6SM BKN250 FM260400 24005KT P6SM SCT250 FM261800 23010KT P6SM SCT020


Runway Data for MMPR
Data provided by openaviationdata.com

Runway ID Mag Var Hdg Length Elevation Surface ILS Freq ILS Id ILS Slope
4 9 38° 10169 ft 23 ft Asphalt -- -- --
22 9 218° 10169 ft 23 ft Asphalt -- -- --

Licenciado Gustaavo Diaz Ordaz International, Mexico, NA
Use only for reference purposes



Not for navigational purposes.